createdAt,value
2017-05-17T00:00:18.265Z,7.32
2017-05-17T00:02:44.949Z,7.40
2017-05-17T00:05:11.622Z,7.00
2017-05-17T00:07:38.294Z,7.08
2017-05-17T00:10:04.965Z,7.52
2017-05-17T00:12:31.638Z,6.53
2017-05-17T00:14:58.307Z,7.52
2017-05-17T00:17:24.981Z,6.85
2017-05-17T00:19:51.659Z,7.35
2017-05-17T00:22:18.336Z,6.60
2017-05-17T00:24:45.004Z,6.45
2017-05-17T00:27:11.673Z,6.77
2017-05-17T00:29:38.340Z,7.55
2017-05-17T00:32:05.020Z,6.07
2017-05-17T00:34:31.698Z,7.23
2017-05-17T00:37:04.249Z,6.68
2017-05-17T00:39:36.925Z,6.77
2017-05-17T00:42:09.424Z,7.07
2017-05-17T00:44:41.934Z,7.05
2017-05-17T00:47:14.461Z,6.75
2017-05-17T00:49:46.908Z,6.80
2017-05-17T00:52:13.582Z,6.52
2017-05-17T00:54:40.260Z,6.80
2017-05-17T00:57:06.934Z,7.08
2017-05-17T00:59:33.596Z,6.77
2017-05-17T01:02:00.268Z,6.33
2017-05-17T01:04:26.963Z,7.43
2017-05-17T01:06:53.637Z,7.20
2017-05-17T01:09:20.314Z,6.33
2017-05-17T01:11:46.986Z,6.85
2017-05-17T01:14:13.657Z,7.22
2017-05-17T01:16:40.332Z,7.35
2017-05-17T01:19:06.996Z,6.87
2017-05-17T01:21:33.707Z,6.68
2017-05-17T01:24:00.384Z,7.02
2017-05-17T01:26:27.056Z,6.93
2017-05-17T01:28:53.737Z,7.08
2017-05-17T01:31:20.409Z,6.90
2017-05-17T01:33:47.084Z,6.98
2017-05-17T01:36:13.761Z,6.73
2017-05-17T01:38:40.439Z,6.65
2017-05-17T01:41:07.104Z,7.23
2017-05-17T01:43:33.778Z,7.48
2017-05-17T01:46:00.450Z,6.77
2017-05-17T01:48:27.123Z,7.32
2017-05-17T01:50:53.795Z,7.67
2017-05-17T01:53:20.465Z,6.95
2017-05-17T01:55:47.128Z,7.02
2017-05-17T01:58:13.800Z,7.47
2017-05-17T02:00:40.476Z,7.03
2017-05-17T02:03:07.148Z,6.87
2017-05-17T02:05:33.825Z,7.32
2017-05-17T02:08:00.496Z,7.93
2017-05-17T02:10:27.163Z,6.75
2017-05-17T02:12:53.832Z,7.35
2017-05-17T02:15:20.504Z,6.82
2017-05-17T02:17:47.187Z,6.82
2017-05-17T02:20:13.864Z,6.88
2017-05-17T02:22:40.537Z,7.15
2017-05-17T02:25:07.209Z,6.57
2017-05-17T02:27:33.886Z,7.05
2017-05-17T02:30:00.558Z,6.90
2017-05-17T02:32:27.228Z,6.88
2017-05-17T02:34:53.905Z,7.75
2017-05-17T02:37:20.584Z,7.30
2017-05-17T02:39:47.258Z,8.58
2017-05-17T02:42:13.944Z,7.33
2017-05-17T02:44:40.618Z,7.30
2017-05-17T02:47:07.284Z,7.10
2017-05-17T02:49:33.948Z,7.97
2017-05-17T02:52:00.625Z,7.50
2017-05-17T02:54:27.297Z,6.83
2017-05-17T02:56:53.972Z,7.08
2017-05-17T02:59:20.644Z,6.60
2017-05-17T03:01:47.311Z,7.25
2017-05-17T03:04:13.980Z,7.60
2017-05-17T03:06:40.658Z,6.65
2017-05-17T03:09:07.348Z,7.12
2017-05-17T03:11:34.020Z,7.47
2017-05-17T03:14:00.716Z,7.02
2017-05-17T03:16:27.381Z,8.73
2017-05-17T03:18:54.091Z,6.78
2017-05-17T03:21:20.775Z,7.92
2017-05-17T03:23:47.453Z,8.55
2017-05-17T03:26:14.121Z,7.37
2017-05-17T03:28:40.797Z,8.12
2017-05-17T03:31:07.468Z,7.52
2017-05-17T03:33:34.138Z,8.25
2017-05-17T03:36:00.808Z,7.40
2017-05-17T03:38:27.479Z,7.47
2017-05-17T03:40:54.150Z,7.75
2017-05-17T03:43:20.820Z,7.77
2017-05-17T03:45:47.494Z,7.50
2017-05-17T03:48:14.165Z,7.25
2017-05-17T03:50:40.841Z,8.12
2017-05-17T03:53:07.512Z,7.02
2017-05-17T03:55:34.189Z,7.40
2017-05-17T03:58:00.892Z,7.65
2017-05-17T04:00:27.561Z,7.73
2017-05-17T04:02:54.234Z,7.22
2017-05-17T04:05:20.913Z,6.65
2017-05-17T04:07:47.593Z,7.32
2017-05-17T04:10:14.261Z,6.85
2017-05-17T04:12:40.940Z,6.85
2017-05-17T04:15:07.609Z,7.78
2017-05-17T04:17:34.284Z,7.60
2017-05-17T04:20:00.993Z,6.90
2017-05-17T04:22:27.663Z,6.72
2017-05-17T04:24:54.333Z,6.47
2017-05-17T04:27:21.006Z,7.32
2017-05-17T04:29:47.675Z,7.12
2017-05-17T04:32:14.353Z,7.65
2017-05-17T04:34:41.032Z,6.95
2017-05-17T04:37:07.706Z,7.25
2017-05-17T04:39:34.376Z,6.82
2017-05-17T04:42:01.060Z,7.50
2017-05-17T04:44:27.728Z,6.95
2017-05-17T04:46:54.396Z,7.83
2017-05-17T04:49:21.068Z,7.43
2017-05-17T04:51:47.743Z,7.38
2017-05-17T04:54:14.414Z,7.08
2017-05-17T04:56:41.085Z,6.63
2017-05-17T04:59:07.755Z,6.83
2017-05-17T05:01:34.468Z,7.62
2017-05-17T05:04:01.144Z,6.73
2017-05-17T05:06:27.820Z,6.70
2017-05-17T05:08:54.505Z,7.42
2017-05-17T05:11:21.177Z,7.20
2017-05-17T05:13:47.857Z,7.55
2017-05-17T05:16:14.523Z,8.05
2017-05-17T05:18:41.193Z,6.67
2017-05-17T05:21:07.863Z,7.30
2017-05-17T05:23:34.533Z,6.97
2017-05-17T05:26:01.245Z,6.95
2017-05-17T05:28:27.914Z,6.60
2017-05-17T05:30:54.580Z,7.18
2017-05-17T05:33:21.249Z,6.78
2017-05-17T05:35:47.917Z,6.53
2017-05-17T05:38:14.592Z,7.78
2017-05-17T05:40:41.267Z,6.80
2017-05-17T05:43:07.934Z,6.58
2017-05-17T05:45:34.612Z,6.18
2017-05-17T05:48:01.284Z,6.45
2017-05-17T05:50:27.964Z,7.05
2017-05-17T05:52:54.644Z,6.78
2017-05-17T05:55:21.323Z,7.32
2017-05-17T05:57:47.996Z,7.27
2017-05-17T06:00:14.667Z,6.60
2017-05-17T06:02:41.342Z,6.60
2017-05-17T06:05:08.033Z,6.45
2017-05-17T06:07:34.708Z,6.70
2017-05-17T06:10:01.396Z,6.90
2017-05-17T06:12:28.072Z,7.30
2017-05-17T06:14:54.757Z,6.73
2017-05-17T06:17:21.437Z,7.18
2017-05-17T06:19:48.101Z,6.36
2017-05-17T06:22:14.768Z,6.50
2017-05-17T06:24:41.431Z,6.50
2017-05-17T06:27:08.106Z,7.06
2017-05-17T06:29:34.773Z,7.06
2017-05-17T06:32:01.484Z,6.52
2017-05-17T06:34:28.149Z,6.44
2017-05-17T06:36:54.820Z,6.74
2017-05-17T06:39:21.491Z,6.32
2017-05-17T06:41:48.163Z,6.26
2017-05-17T06:44:14.835Z,6.08
2017-05-17T06:46:41.497Z,6.16
2017-05-17T06:49:08.164Z,6.22
2017-05-17T06:51:34.837Z,6.40
2017-05-17T06:54:01.508Z,5.96
2017-05-17T06:56:28.177Z,5.96
2017-05-17T06:58:54.844Z,6.12
2017-05-17T07:01:21.512Z,6.42
2017-05-17T07:03:48.188Z,6.16
2017-05-17T07:06:14.852Z,5.66
2017-05-17T07:08:41.524Z,6.38
2017-05-17T07:11:08.204Z,6.32
2017-05-17T07:13:34.908Z,5.76
2017-05-17T07:16:01.577Z,5.92
2017-05-17T07:18:28.252Z,6.22
2017-05-17T07:20:54.921Z,5.82
2017-05-17T07:23:21.583Z,5.18
2017-05-17T07:25:48.252Z,5.82
2017-05-17T07:28:14.916Z,6.14
2017-05-17T07:30:41.588Z,5.54
2017-05-17T07:33:08.254Z,5.66
2017-05-17T07:35:34.936Z,5.16
2017-05-17T07:38:01.602Z,5.50
2017-05-17T07:40:28.276Z,5.70
2017-05-17T07:42:54.949Z,5.04
2017-05-17T07:45:21.617Z,6.30
2017-05-17T07:47:48.289Z,5.84
2017-05-17T07:50:14.952Z,5.12
2017-05-17T07:52:41.629Z,5.88
2017-05-17T07:55:08.297Z,4.96
2017-05-17T07:57:35.269Z,5.46
2017-05-17T08:00:01.945Z,5.10
2017-05-17T08:02:28.618Z,5.30
2017-05-17T08:04:55.285Z,5.90
2017-05-17T08:07:21.957Z,5.90
2017-05-17T08:09:48.635Z,5.28
2017-05-17T08:12:15.306Z,5.58
2017-05-17T08:14:41.980Z,5.88
2017-05-17T08:17:08.648Z,5.64
2017-05-17T08:19:35.362Z,5.36
2017-05-17T08:22:02.032Z,4.96
2017-05-17T08:24:28.705Z,5.40
2017-05-17T08:26:55.365Z,5.60
2017-05-17T08:29:22.035Z,5.42
2017-05-17T08:31:48.705Z,4.74
2017-05-17T08:34:15.372Z,5.18
2017-05-17T08:36:42.041Z,4.78
2017-05-17T08:39:08.709Z,5.42
2017-05-17T08:41:35.377Z,5.24
2017-05-17T08:44:02.043Z,4.92
2017-05-17T08:46:28.721Z,4.90
2017-05-17T08:48:55.386Z,5.26
2017-05-17T08:51:22.061Z,5.36
2017-05-17T08:53:48.727Z,5.04
2017-05-17T08:56:15.393Z,4.62
2017-05-17T08:58:42.061Z,4.36
2017-05-17T09:01:08.725Z,4.94
2017-05-17T09:03:35.397Z,5.00
2017-05-17T09:06:02.081Z,4.34
2017-05-17T09:08:28.758Z,4.40
2017-05-17T09:10:55.431Z,5.18
2017-05-17T09:13:22.092Z,5.00
2017-05-17T09:15:48.757Z,4.90
2017-05-17T09:18:15.425Z,5.20
2017-05-17T09:20:42.092Z,5.02
2017-05-17T09:23:08.760Z,5.10
2017-05-17T09:25:35.437Z,4.78
2017-05-17T09:28:02.124Z,4.86
2017-05-17T09:30:28.793Z,4.60
2017-05-17T09:32:55.466Z,4.64
2017-05-17T09:35:22.138Z,5.32
2017-05-17T09:37:48.813Z,4.40
2017-05-17T09:40:15.478Z,5.22
2017-05-17T09:42:42.158Z,5.14
2017-05-17T09:45:08.835Z,4.14
2017-05-17T09:47:35.512Z,3.98
2017-05-17T09:50:02.193Z,4.26
2017-05-17T09:52:28.867Z,4.28
2017-05-17T09:54:55.538Z,4.12
2017-05-17T09:57:22.216Z,4.20
2017-05-17T09:59:48.885Z,4.98
2017-05-17T10:02:15.553Z,4.32
2017-05-17T10:04:42.225Z,3.66
2017-05-17T10:07:08.905Z,3.70
2017-05-17T10:09:35.573Z,4.40
2017-05-17T10:12:02.245Z,3.68
2017-05-17T10:14:28.926Z,3.74
2017-05-17T10:16:55.608Z,3.68
2017-05-17T10:19:22.280Z,3.92
2017-05-17T10:21:48.948Z,3.70
2017-05-17T10:24:15.621Z,3.34
2017-05-17T10:26:42.293Z,3.50
2017-05-17T10:29:08.965Z,3.58
2017-05-17T10:31:35.635Z,3.66
2017-05-17T10:34:02.304Z,3.56
2017-05-17T10:36:29.008Z,4.40
2017-05-17T10:38:55.680Z,3.60
2017-05-17T10:41:22.350Z,4.06
2017-05-17T10:43:49.047Z,3.36
2017-05-17T10:46:15.716Z,3.30
2017-05-17T10:48:42.393Z,3.56
2017-05-17T10:51:09.066Z,3.38
2017-05-17T10:53:35.737Z,3.30
2017-05-17T10:56:02.412Z,3.40
2017-05-17T10:58:29.085Z,3.60
2017-05-17T11:00:55.760Z,3.94
2017-05-17T11:03:23.406Z,4.00
2017-05-17T11:05:50.096Z,3.86
2017-05-17T11:08:16.784Z,3.52
2017-05-17T11:10:43.460Z,3.70
2017-05-17T11:13:10.137Z,3.92
2017-05-17T11:15:36.813Z,4.72
2017-05-17T11:18:03.484Z,4.06
2017-05-17T11:20:30.161Z,3.84
2017-05-17T11:22:56.840Z,3.86
2017-05-17T11:25:23.504Z,3.66
2017-05-17T11:27:50.184Z,3.70
2017-05-17T11:30:16.853Z,4.00
2017-05-17T11:32:43.531Z,3.54
2017-05-17T11:35:10.209Z,3.66
2017-05-17T11:37:36.891Z,3.86
2017-05-17T11:40:03.571Z,3.78
2017-05-17T11:42:30.248Z,3.60
2017-05-17T11:44:56.933Z,3.42
2017-05-17T11:47:23.645Z,3.80
2017-05-17T11:49:50.311Z,4.00
2017-05-17T11:52:16.986Z,3.70
2017-05-17T11:54:43.671Z,3.82
2017-05-17T11:57:10.349Z,3.50
2017-05-17T11:59:37.013Z,3.64
2017-05-17T12:02:03.695Z,3.70
2017-05-17T12:04:30.372Z,3.50
2017-05-17T12:06:57.047Z,3.96
2017-05-17T12:09:23.709Z,3.62
2017-05-17T12:11:50.390Z,3.70
2017-05-17T12:14:17.067Z,4.44
2017-05-17T12:16:43.728Z,3.82
2017-05-17T12:19:10.407Z,3.58
2017-05-17T12:21:37.082Z,4.06
2017-05-17T12:24:03.749Z,3.60
2017-05-17T12:26:30.424Z,4.12
2017-05-17T12:28:57.084Z,4.06
2017-05-17T12:31:23.762Z,3.90
2017-05-17T12:33:50.432Z,3.74
2017-05-17T12:36:17.105Z,4.02
2017-05-17T12:38:43.776Z,4.20
2017-05-17T12:41:10.447Z,3.90
2017-05-17T12:43:37.108Z,4.58
2017-05-17T12:46:03.773Z,3.70
2017-05-17T12:48:30.440Z,3.96
2017-05-17T12:50:57.112Z,3.70
2017-05-17T12:53:23.780Z,3.74
2017-05-17T12:55:50.453Z,4.30
2017-05-17T12:58:17.120Z,4.12
2017-05-17T13:00:43.785Z,3.84
2017-05-17T13:03:10.448Z,4.12
2017-05-17T13:05:37.124Z,3.86
2017-05-17T13:08:03.797Z,4.20
2017-05-17T13:10:30.460Z,4.02
2017-05-17T13:12:57.133Z,4.10
2017-05-17T13:15:23.806Z,4.60
2017-05-17T13:17:50.480Z,4.68
2017-05-17T13:20:17.148Z,4.30
2017-05-17T13:22:43.820Z,3.90
2017-05-17T13:25:10.485Z,3.94
2017-05-17T13:27:37.161Z,4.02
2017-05-17T13:30:03.836Z,4.34
2017-05-17T13:32:30.504Z,4.40
2017-05-17T13:34:57.180Z,4.10
2017-05-17T13:37:23.840Z,4.28
2017-05-17T13:39:50.517Z,3.86
2017-05-17T13:42:17.195Z,4.28
2017-05-17T13:44:43.866Z,4.36
2017-05-17T13:47:10.529Z,4.60
2017-05-17T13:49:37.192Z,4.24
2017-05-17T13:52:03.856Z,4.42
2017-05-17T13:54:30.520Z,4.24
2017-05-17T13:56:57.190Z,4.46
2017-05-17T13:59:23.860Z,4.20
2017-05-17T14:01:50.891Z,4.46
2017-05-17T14:04:17.553Z,4.48
2017-05-17T14:06:44.228Z,4.26
2017-05-17T14:09:10.900Z,4.28
2017-05-17T14:11:37.570Z,4.80
2017-05-17T14:14:04.232Z,4.38
2017-05-17T14:16:30.899Z,4.38
2017-05-17T14:18:57.569Z,4.70
2017-05-17T14:21:24.284Z,5.00
2017-05-17T14:23:50.949Z,4.66
2017-05-17T14:26:17.632Z,4.98
2017-05-17T14:28:44.296Z,5.10
2017-05-17T14:31:10.976Z,4.42
2017-05-17T14:33:37.643Z,4.78
2017-05-17T14:36:04.320Z,4.78
2017-05-17T14:38:30.991Z,4.86
2017-05-17T14:40:57.690Z,4.90
2017-05-17T14:43:24.362Z,5.16
2017-05-17T14:45:51.034Z,5.30
2017-05-17T14:48:17.703Z,4.96
2017-05-17T14:50:44.369Z,4.54
2017-05-17T14:53:11.039Z,4.50
2017-05-17T14:55:37.716Z,4.88
2017-05-17T14:58:04.391Z,4.78
2017-05-17T15:00:31.113Z,4.56
2017-05-17T15:02:57.796Z,5.20
2017-05-17T15:05:24.468Z,5.08
2017-05-17T15:07:51.139Z,4.82
2017-05-17T15:10:17.809Z,4.10
2017-05-17T15:12:44.484Z,5.12
2017-05-17T15:15:11.167Z,4.64
2017-05-17T15:17:37.834Z,4.78
2017-05-17T15:20:04.513Z,4.60
2017-05-17T15:22:31.185Z,4.50
2017-05-17T15:24:57.856Z,4.38
2017-05-17T15:27:24.525Z,4.58
2017-05-17T15:29:51.191Z,4.28
2017-05-17T15:32:17.862Z,4.24
2017-05-17T15:34:44.537Z,4.12
2017-05-17T15:37:11.213Z,4.32
2017-05-17T15:39:37.893Z,5.18
2017-05-17T15:42:04.564Z,4.24
2017-05-17T15:44:31.232Z,7.26
2017-05-17T15:46:57.911Z,4.96
2017-05-17T15:49:24.588Z,4.44
2017-05-17T15:51:51.249Z,4.00
2017-05-17T15:54:17.930Z,4.16
2017-05-17T15:56:44.601Z,4.10
2017-05-17T15:59:11.292Z,4.38
2017-05-17T16:01:37.956Z,4.60
2017-05-17T16:04:04.626Z,4.80
2017-05-17T16:06:31.296Z,4.48
2017-05-17T16:09:02.232Z,5.44
2017-05-17T16:11:28.905Z,5.08
2017-05-17T16:13:55.572Z,4.72
2017-05-17T16:16:22.320Z,4.70
2017-05-17T16:18:48.998Z,4.60
2017-05-17T16:21:15.679Z,4.40
2017-05-17T16:23:42.349Z,4.96
2017-05-17T16:26:09.016Z,4.96
2017-05-17T16:28:35.691Z,4.96
2017-05-17T16:31:02.357Z,5.18
2017-05-17T16:33:29.020Z,5.30
2017-05-17T16:35:55.690Z,4.32
2017-05-17T16:38:22.408Z,4.96
2017-05-17T16:40:49.076Z,5.14
2017-05-17T16:43:15.758Z,5.74
2017-05-17T16:45:42.427Z,5.16
2017-05-17T16:48:09.106Z,5.28
2017-05-17T16:50:37.759Z,5.76
2017-05-17T16:53:04.582Z,5.84
2017-05-17T16:55:31.280Z,4.66
2017-05-17T16:57:57.948Z,5.54
2017-05-17T17:00:24.810Z,5.14
2017-05-17T17:02:51.819Z,5.96
2017-05-17T17:05:21.213Z,5.48
2017-05-17T17:07:48.129Z,5.18
2017-05-17T17:10:14.977Z,5.94
2017-05-17T17:12:41.687Z,5.16
2017-05-17T17:15:08.358Z,5.38
2017-05-17T17:17:35.029Z,5.60
2017-05-17T17:20:01.702Z,5.36
2017-05-17T17:22:28.376Z,5.36
2017-05-17T17:24:55.053Z,4.66
2017-05-17T17:27:21.721Z,4.72
2017-05-17T17:29:48.403Z,4.60
2017-05-17T17:32:15.076Z,4.80
2017-05-17T17:34:41.744Z,4.86
2017-05-17T17:37:08.417Z,5.38
2017-05-17T17:39:35.080Z,4.90
2017-05-17T17:42:01.752Z,4.72
2017-05-17T17:44:28.449Z,4.48
2017-05-17T17:46:55.123Z,5.18
2017-05-17T17:49:21.835Z,4.72
2017-05-17T17:51:48.517Z,5.10
2017-05-17T17:54:15.184Z,4.68
2017-05-17T17:56:41.856Z,4.40
2017-05-17T17:59:08.537Z,4.46
2017-05-17T18:01:35.209Z,4.90
2017-05-17T18:04:01.876Z,4.78
2017-05-17T18:06:28.548Z,9.96
2017-05-17T18:08:55.257Z,5.18
2017-05-17T18:11:21.930Z,5.50
2017-05-17T18:13:48.603Z,4.96
2017-05-17T18:16:15.277Z,4.90
2017-05-17T18:18:42.740Z,5.12
2017-05-17T18:21:09.415Z,5.28
2017-05-17T18:23:36.086Z,5.46
2017-05-17T18:26:02.759Z,5.44
2017-05-17T18:28:29.440Z,5.04
2017-05-17T18:30:56.133Z,5.28
2017-05-17T18:33:23.213Z,5.10
2017-05-17T18:35:49.888Z,4.96
2017-05-17T18:38:16.562Z,5.52
2017-05-17T18:40:43.236Z,5.36
2017-05-17T18:43:09.900Z,4.94
2017-05-17T18:45:36.573Z,4.88
2017-05-17T18:48:04.716Z,5.30
2017-05-17T18:50:31.424Z,5.04
2017-05-17T18:52:58.204Z,4.94
2017-05-17T18:55:24.869Z,5.50
2017-05-17T18:57:51.531Z,6.10
2017-05-17T19:00:18.197Z,5.56
2017-05-17T19:02:44.868Z,5.54
2017-05-17T19:05:11.561Z,6.08
2017-05-17T19:07:38.241Z,6.32
2017-05-17T19:10:04.918Z,5.38
2017-05-17T19:12:31.587Z,5.30
2017-05-17T19:14:58.257Z,5.42
2017-05-17T19:17:24.932Z,5.68
2017-05-17T19:19:51.601Z,6.14
2017-05-17T19:22:18.268Z,5.84
2017-05-17T19:24:44.936Z,5.98
2017-05-17T19:27:11.607Z,5.98
2017-05-17T19:29:38.276Z,6.06
2017-05-17T19:32:04.950Z,6.54
2017-05-17T19:34:31.613Z,6.96
2017-05-17T19:36:58.284Z,5.98
2017-05-17T19:39:24.953Z,6.48
2017-05-17T19:41:51.631Z,6.38
2017-05-17T19:44:18.309Z,6.58
2017-05-17T19:46:45.036Z,6.74
2017-05-17T19:49:11.693Z,7.16
2017-05-17T19:51:38.378Z,6.97
2017-05-17T19:54:05.051Z,6.86
2017-05-17T19:56:31.724Z,6.90
2017-05-17T19:58:58.393Z,7.28
2017-05-17T20:01:25.062Z,7.04
2017-05-17T20:03:51.739Z,6.90
2017-05-17T20:06:18.454Z,7.75
2017-05-17T20:08:45.143Z,7.38
2017-05-17T20:11:11.826Z,7.43
2017-05-17T20:13:38.508Z,7.42
2017-05-17T20:16:05.373Z,7.50
2017-05-17T20:18:32.052Z,8.47
2017-05-17T20:20:58.727Z,8.27
2017-05-17T20:23:25.415Z,8.13
2017-05-17T20:25:52.098Z,8.80
2017-05-17T20:28:18.789Z,7.68
2017-05-17T20:30:45.479Z,8.68
2017-05-17T20:33:12.162Z,8.55
2017-05-17T20:35:38.835Z,8.38
2017-05-17T20:38:05.508Z,8.93
2017-05-17T20:40:33.108Z,9.48
2017-05-17T20:42:59.794Z,8.97
2017-05-17T20:45:26.476Z,8.48
2017-05-17T20:47:53.158Z,9.08
2017-05-17T20:50:19.844Z,9.65
2017-05-17T20:52:46.577Z,9.55
2017-05-17T20:55:13.252Z,8.85
2017-05-17T20:57:39.935Z,9.23
2017-05-17T21:00:06.619Z,9.48
2017-05-17T21:02:33.336Z,8.68
2017-05-17T21:05:00.008Z,9.20
2017-05-17T21:07:26.687Z,9.45
2017-05-17T21:09:53.364Z,9.07
2017-05-17T21:12:20.056Z,9.30
2017-05-17T21:14:46.766Z,9.63
2017-05-17T21:17:13.448Z,9.78
2017-05-17T21:19:40.129Z,9.20
2017-05-17T21:22:06.810Z,10.38
2017-05-17T21:24:33.501Z,9.97
2017-05-17T21:27:03.429Z,10.33
2017-05-17T21:29:30.586Z,10.70
2017-05-17T21:31:57.264Z,10.25
2017-05-17T21:34:23.948Z,10.43
2017-05-17T21:36:50.632Z,10.35
2017-05-17T21:39:17.325Z,10.00
2017-05-17T21:41:44.022Z,10.78
2017-05-17T21:44:10.732Z,9.92
2017-05-17T21:46:37.437Z,10.65
2017-05-17T21:49:04.120Z,10.35
2017-05-17T21:51:30.798Z,9.23
2017-05-17T21:53:57.468Z,9.77
2017-05-17T21:56:24.140Z,10.48
2017-05-17T21:58:50.816Z,9.95
2017-05-17T22:01:17.496Z,10.40
2017-05-17T22:03:44.164Z,9.13
2017-05-17T22:06:10.836Z,10.38
2017-05-17T22:08:37.513Z,10.78
2017-05-17T22:11:04.188Z,10.87
2017-05-17T22:13:30.897Z,10.30
2017-05-17T22:15:57.577Z,10.38
2017-05-17T22:18:24.309Z,10.13
2017-05-17T22:20:50.974Z,10.63
2017-05-17T22:23:17.652Z,11.08
2017-05-17T22:25:44.323Z,10.02
2017-05-17T22:28:10.993Z,10.33
2017-05-17T22:30:37.668Z,9.92
2017-05-17T22:33:04.352Z,11.38
2017-05-17T22:35:31.029Z,10.63
2017-05-17T22:37:57.708Z,10.38
2017-05-17T22:40:24.434Z,11.35
2017-05-17T22:42:51.115Z,11.07
2017-05-17T22:45:17.789Z,10.35
2017-05-17T22:47:44.460Z,12.33
2017-05-17T22:50:11.136Z,9.95
2017-05-17T22:52:37.842Z,10.63
2017-05-17T22:55:04.520Z,10.40
2017-05-17T22:57:31.224Z,11.15
2017-05-17T22:59:57.901Z,10.82
2017-05-17T23:02:24.609Z,10.78
2017-05-17T23:04:51.288Z,11.35
2017-05-17T23:07:17.972Z,12.70
2017-05-17T23:09:44.648Z,12.53
2017-05-17T23:12:11.324Z,12.37
2017-05-17T23:14:38.028Z,13.05
2017-05-17T23:17:04.704Z,12.17
2017-05-17T23:19:31.404Z,11.98
2017-05-17T23:21:58.089Z,12.90
2017-05-17T23:24:24.796Z,12.70
2017-05-17T23:26:51.473Z,12.22
2017-05-17T23:29:18.188Z,13.35
2017-05-17T23:31:44.863Z,12.52
2017-05-17T23:34:11.541Z,13.08
2017-05-17T23:36:38.220Z,12.82
2017-05-17T23:39:04.914Z,12.50
2017-05-17T23:41:31.603Z,12.32
2017-05-17T23:43:58.289Z,13.33
2017-05-17T23:46:24.992Z,13.80
2017-05-17T23:48:51.663Z,12.85
2017-05-17T23:51:18.356Z,12.28
2017-05-17T23:53:45.032Z,11.80
2017-05-17T23:56:11.753Z,11.20
2017-05-17T23:58:38.438Z,12.38
